Weather at Bairnsdale Airport

Public forecast

Using degrees Celsius for public forecast. Weather courtesy of forecast.io.

Closest aviation weather report (METAR) to Bairnsdale Airport

Closest report is Wangaratta Airport, 107.0 nm (198.2 km) NW. Retrieved 2020/10/23 04:00 UTC (11 minutes ago):

YWGT 230400Z AUTO 04011G21KT 9999 +SHRA SCT068 OVC095 19/16 Q1006

Closest aviation forecast (TAF) to Bairnsdale Airport

Closest forecast is Wangaratta Airport, 107.0 nm (198.2 km) NW. Retrieved 2020-10-23 02:33 UTC (2 hours ago):

TAF YWGT 230132Z 2302/2314 06006KT 9999 -RA FEW020 FM231000 VRB03KT 9999 -RA FEW020 SCT030 PROB30 TEMPO 2302/2314 VRB20G35KT 4000 TSRA SCT090CB